createdAt,value
2022-11-29T00:01:16.000Z,30.57
2022-11-29T00:03:36.000Z,33.17
2022-11-29T00:06:02.000Z,34.15
2022-11-29T00:08:28.000Z,35
2022-11-29T00:10:54.000Z,36.93
2022-11-29T00:13:20.000Z,35.8
2022-11-29T00:15:46.000Z,35.9
2022-11-29T00:18:12.000Z,36.67
2022-11-29T00:20:37.000Z,35.87
2022-11-29T00:23:03.000Z,36.9
2022-11-29T00:25:29.000Z,35.85
2022-11-29T00:27:54.000Z,34.03
2022-11-29T00:30:21.000Z,35.28
2022-11-29T00:32:46.000Z,35.05
2022-11-29T00:35:13.000Z,35.35
2022-11-29T00:37:38.000Z,33.35
2022-11-29T00:40:05.000Z,33.33
2022-11-29T00:42:29.000Z,32.53
2022-11-29T00:44:56.000Z,32.43
2022-11-29T00:47:21.000Z,32.95
2022-11-29T00:49:47.000Z,33.67
2022-11-29T00:52:13.000Z,33.7
2022-11-29T00:54:39.000Z,33.3
2022-11-29T00:57:04.000Z,32.13
2022-11-29T00:59:38.000Z,31.3
2022-11-29T01:01:56.000Z,37.63
2022-11-29T01:04:21.000Z,39.48
2022-11-29T01:06:47.000Z,38.85
2022-11-29T01:09:13.000Z,42.6
2022-11-29T01:11:38.000Z,42.4
2022-11-29T01:14:06.000Z,39.87
2022-11-29T01:16:30.000Z,44.73
2022-11-29T01:18:55.000Z,43.58
2022-11-29T01:21:21.000Z,45.58
2022-11-29T01:23:47.000Z,47.03
2022-11-29T01:26:14.000Z,46.55
2022-11-29T01:28:40.000Z,48.13
2022-11-29T01:31:05.000Z,50.6
2022-11-29T01:33:30.000Z,53.07
2022-11-29T01:35:56.000Z,54.6
2022-11-29T01:38:23.000Z,60.8
2022-11-29T01:40:48.000Z,55.58
2022-11-29T01:43:13.000Z,56.6
2022-11-29T01:45:39.000Z,59.43
2022-11-29T01:48:06.000Z,60.73
2022-11-29T01:50:31.000Z,59
2022-11-29T01:52:56.000Z,58.23
2022-11-29T01:55:22.000Z,62
2022-11-29T01:57:47.000Z,61.77
2022-11-29T02:00:24.000Z,56.67
2022-11-29T02:02:39.000Z,59.45
2022-11-29T02:05:06.000Z,56.73
2022-11-29T02:07:31.000Z,55.3
2022-11-29T02:09:57.000Z,51.9
2022-11-29T02:12:22.000Z,50.63
2022-11-29T02:14:48.000Z,50.23
2022-11-29T02:17:14.000Z,51.83
2022-11-29T02:19:39.000Z,51.23
2022-11-29T02:22:06.000Z,50
2022-11-29T02:24:31.000Z,48.7
2022-11-29T02:26:56.000Z,49.48
2022-11-29T02:29:23.000Z,50
2022-11-29T02:31:50.000Z,48.1
2022-11-29T02:34:15.000Z,44.73
2022-11-29T02:36:41.000Z,45.83
2022-11-29T02:39:07.000Z,43.83
2022-11-29T02:41:32.000Z,43.9
2022-11-29T02:43:58.000Z,45
2022-11-29T02:46:24.000Z,42.33
2022-11-29T02:48:50.000Z,42.73
2022-11-29T02:51:16.000Z,44.67
2022-11-29T02:53:41.000Z,41.67
2022-11-29T02:56:07.000Z,41.6
2022-11-29T02:58:34.000Z,40.38
2022-11-29T03:00:59.000Z,38.1
2022-11-29T03:03:25.000Z,37.08
2022-11-29T03:05:50.000Z,37.2
2022-11-29T03:08:16.000Z,41.33
2022-11-29T03:10:42.000Z,39.27
2022-11-29T03:13:09.000Z,37.67
2022-11-29T03:15:34.000Z,38.87
2022-11-29T03:17:59.000Z,37.07
2022-11-29T03:20:26.000Z,35.17
2022-11-29T03:22:52.000Z,34.05
2022-11-29T03:25:18.000Z,30.45
2022-11-29T03:27:42.000Z,31.27
2022-11-29T03:30:09.000Z,26.17
2022-11-29T03:32:34.000Z,26.82
2022-11-29T03:35:00.000Z,25.62
2022-11-29T03:37:25.000Z,25.65
2022-11-29T03:39:52.000Z,22.55
2022-11-29T03:42:17.000Z,24.33
2022-11-29T03:44:43.000Z,22.1
2022-11-29T03:47:09.000Z,21.45
2022-11-29T03:49:34.000Z,20.08
2022-11-29T03:52:00.000Z,17.55
2022-11-29T03:54:27.000Z,18.77
2022-11-29T03:56:52.000Z,14.47
2022-11-29T03:59:19.000Z,15.55
2022-11-29T04:01:49.000Z,13.28
2022-11-29T04:04:09.000Z,12.67
2022-11-29T04:06:35.000Z,10.88
2022-11-29T04:09:01.000Z,10.75
2022-11-29T04:11:27.000Z,9.78
2022-11-29T04:13:54.000Z,10.1
2022-11-29T04:16:19.000Z,10.5
2022-11-29T04:18:44.000Z,10.63
2022-11-29T04:21:10.000Z,10.1
2022-11-29T04:23:39.000Z,10.78
2022-11-29T04:26:05.000Z,10.9
2022-11-29T04:28:30.000Z,14
2022-11-29T04:30:56.000Z,11.83
2022-11-29T04:33:21.000Z,13.1
2022-11-29T04:35:47.000Z,11.63
2022-11-29T04:38:13.000Z,11.97
2022-11-29T04:40:39.000Z,10.67
2022-11-29T04:43:05.000Z,11.4
2022-11-29T04:45:31.000Z,12.13
2022-11-29T04:47:57.000Z,13.05
2022-11-29T04:50:23.000Z,12.97
2022-11-29T04:52:49.000Z,13.63
2022-11-29T04:55:14.000Z,16.9
2022-11-29T04:57:40.000Z,17.62
2022-11-29T05:00:09.000Z,16.3
2022-11-29T05:02:31.000Z,16.37
2022-11-29T05:04:59.000Z,16.35
2022-11-29T05:07:23.000Z,19.2
2022-11-29T05:09:49.000Z,19.02
2022-11-29T05:12:14.000Z,19.17
2022-11-29T05:14:41.000Z,19.07
2022-11-29T05:17:06.000Z,20.27
2022-11-29T05:19:31.000Z,21.33
2022-11-29T05:21:57.000Z,21.03
2022-11-29T05:24:25.000Z,20.68
2022-11-29T05:26:49.000Z,19.62
2022-11-29T05:29:15.000Z,20.17
2022-11-29T05:31:41.000Z,20.37
2022-11-29T05:34:07.000Z,20.75
2022-11-29T05:36:33.000Z,21.7
2022-11-29T05:38:58.000Z,20.1
2022-11-29T05:41:24.000Z,19.73
2022-11-29T05:43:49.000Z,19.87
2022-11-29T05:46:15.000Z,19.67
2022-11-29T05:48:41.000Z,19.67
2022-11-29T05:51:07.000Z,18.42
2022-11-29T05:53:33.000Z,18.63
2022-11-29T05:55:59.000Z,17.23
2022-11-29T05:58:24.000Z,16.97
2022-11-29T06:01:14.000Z,16.8
2022-11-29T06:03:29.000Z,18.27
2022-11-29T06:05:42.000Z,18.27
2022-11-29T06:08:08.000Z,15.83
2022-11-29T06:10:33.000Z,17.65
2022-11-29T06:12:59.000Z,15.38
2022-11-29T06:15:30.000Z,14.55
2022-11-29T06:17:51.000Z,14.7
2022-11-29T06:20:17.000Z,14.43
2022-11-29T06:22:42.000Z,14.8
2022-11-29T06:25:08.000Z,14.43
2022-11-29T06:27:34.000Z,13.18
2022-11-29T06:29:59.000Z,14.07
2022-11-29T06:32:25.000Z,13.2
2022-11-29T06:34:51.000Z,13.3
2022-11-29T06:37:17.000Z,13.07
2022-11-29T06:39:43.000Z,13.13
2022-11-29T06:42:09.000Z,13.3
2022-11-29T06:44:34.000Z,11.23
2022-11-29T06:47:00.000Z,10.77
2022-11-29T06:49:26.000Z,9.95
2022-11-29T06:51:52.000Z,8.4
2022-11-29T06:54:18.000Z,7.25
2022-11-29T06:56:44.000Z,8.1
2022-11-29T06:59:10.000Z,7.33
2022-11-29T07:01:47.000Z,7.5
2022-11-29T07:04:01.000Z,5.6
2022-11-29T07:06:27.000Z,4.9
2022-11-29T07:08:52.000Z,5.25
2022-11-29T07:11:18.000Z,4.9
2022-11-29T07:13:44.000Z,5.12
2022-11-29T07:16:10.000Z,5.7
2022-11-29T07:18:36.000Z,5.97
2022-11-29T07:21:02.000Z,6.07
2022-11-29T07:23:28.000Z,5.83
2022-11-29T07:25:54.000Z,5.87
2022-11-29T07:28:19.000Z,5.62
2022-11-29T07:33:16.000Z,5.53
2022-11-29T07:35:43.000Z,5.4
2022-11-29T07:38:08.000Z,5.3
2022-11-29T07:40:35.000Z,4.7
2022-11-29T07:43:01.000Z,5.3
2022-11-29T07:45:28.000Z,5.45
2022-11-29T07:47:54.000Z,5.8
2022-11-29T07:50:20.000Z,5.57
2022-11-29T07:52:45.000Z,5.85
2022-11-29T07:55:11.000Z,5.8
2022-11-29T07:57:39.000Z,5.92
2022-11-29T08:00:08.000Z,6.53
2022-11-29T08:02:31.000Z,6.93
2022-11-29T08:04:55.000Z,6.77
2022-11-29T08:07:22.000Z,6.3
2022-11-29T08:09:48.000Z,7
2022-11-29T08:12:13.000Z,7.17
2022-11-29T08:14:39.000Z,7.28
2022-11-29T08:17:05.000Z,7.37
2022-11-29T08:19:31.000Z,7.33
2022-11-29T08:21:56.000Z,7.13
2022-11-29T08:24:26.000Z,7.67
2022-11-29T08:26:54.000Z,7.12
2022-11-29T08:29:20.000Z,7.12
2022-11-29T08:31:46.000Z,7.47
2022-11-29T08:34:12.000Z,7.7
2022-11-29T08:36:38.000Z,7.4
2022-11-29T08:39:03.000Z,7.45
2022-11-29T08:41:30.000Z,7.65
2022-11-29T08:43:56.000Z,7.6
2022-11-29T08:46:23.000Z,8.23
2022-11-29T08:48:49.000Z,8.2
2022-11-29T08:51:16.000Z,7.83
2022-11-29T08:53:43.000Z,7.47
2022-11-29T08:56:09.000Z,7.77
2022-11-29T08:58:36.000Z,7.83
2022-11-29T09:01:02.000Z,7.5
2022-11-29T09:03:31.000Z,7.7
2022-11-29T09:05:55.000Z,7.28
2022-11-29T09:08:21.000Z,7.4
2022-11-29T09:10:47.000Z,7.6
2022-11-29T09:13:15.000Z,7.37
2022-11-29T09:15:39.000Z,7.7
2022-11-29T09:18:07.000Z,7.53
2022-11-29T09:20:32.000Z,7.15
2022-11-29T09:22:57.000Z,6.75
2022-11-29T09:25:23.000Z,6.37
2022-11-29T09:27:49.000Z,6.85
2022-11-29T09:30:16.000Z,6.75
2022-11-29T09:32:41.000Z,6.42
2022-11-29T09:35:07.000Z,7.28
2022-11-29T09:37:33.000Z,6.4
2022-11-29T09:39:58.000Z,6.93
2022-11-29T09:42:26.000Z,6.22
2022-11-29T09:44:53.000Z,6.12
2022-11-29T09:47:20.000Z,6.22
2022-11-29T09:49:45.000Z,5.85
2022-11-29T09:52:15.000Z,5.73
2022-11-29T09:54:41.000Z,5.75
2022-11-29T09:57:07.000Z,5.9
2022-11-29T09:59:39.000Z,5.97
2022-11-29T10:02:00.000Z,6
2022-11-29T10:04:25.000Z,5.63
2022-11-29T10:06:51.000Z,5.8
2022-11-29T10:09:19.000Z,5.9
2022-11-29T10:14:12.000Z,6.33
2022-11-29T10:16:39.000Z,5.9
2022-11-29T10:19:06.000Z,6.17
2022-11-29T10:21:32.000Z,6.03
2022-11-29T10:24:01.000Z,6.3
2022-11-29T10:26:26.000Z,6.45
2022-11-29T10:28:53.000Z,6.37
2022-11-29T10:31:22.000Z,6.5
2022-11-29T10:33:49.000Z,7
2022-11-29T10:36:16.000Z,6.45
2022-11-29T10:38:42.000Z,6.4
2022-11-29T10:41:09.000Z,6.8
2022-11-29T10:43:34.000Z,6.57
2022-11-29T10:48:31.000Z,6.37
2022-11-29T10:50:56.000Z,7.22
2022-11-29T10:53:24.000Z,8.4
2022-11-29T10:55:51.000Z,9.28
2022-11-29T10:58:19.000Z,7.95
2022-11-29T11:03:12.000Z,15.57
2022-11-29T11:05:38.000Z,16.43
2022-11-29T11:08:07.000Z,21.27
2022-11-29T11:10:38.000Z,22.6
2022-11-29T11:13:04.000Z,20.5
2022-11-29T11:15:30.000Z,16.23
2022-11-29T11:17:55.000Z,16.87
2022-11-29T11:20:21.000Z,14.8
2022-11-29T11:22:47.000Z,14.23
2022-11-29T11:25:12.000Z,14.4
2022-11-29T11:27:41.000Z,13.45
2022-11-29T11:30:09.000Z,12.63
2022-11-29T11:32:33.000Z,11.33
2022-11-29T11:35:05.000Z,10.9
2022-11-29T11:37:32.000Z,10.65
2022-11-29T11:40:06.000Z,11.15
2022-11-29T11:42:31.000Z,10.32
2022-11-29T11:45:00.000Z,10.23
2022-11-29T11:47:27.000Z,9.85
2022-11-29T11:49:53.000Z,10.3
2022-11-29T11:52:20.000Z,10.47
2022-11-29T11:54:49.000Z,11.45
2022-11-29T11:57:22.000Z,12.55
2022-11-29T12:00:00.000Z,13.45
2022-11-29T12:02:28.000Z,13.05
2022-11-29T12:04:51.000Z,13.25
2022-11-29T12:07:18.000Z,12.55
2022-11-29T12:09:45.000Z,12.15
2022-11-29T12:12:12.000Z,13.5
2022-11-29T12:14:38.000Z,12.18
2022-11-29T12:17:04.000Z,12.7
2022-11-29T12:19:30.000Z,12.47
2022-11-29T12:21:59.000Z,12.55
2022-11-29T12:24:27.000Z,11.4
2022-11-29T12:26:53.000Z,11.73
2022-11-29T12:29:20.000Z,11.9
2022-11-29T12:31:47.000Z,10.75
2022-11-29T12:34:14.000Z,9.3
2022-11-29T12:36:38.000Z,9.3
2022-11-29T12:39:05.000Z,7.95
2022-11-29T12:41:31.000Z,8.23
2022-11-29T12:43:57.000Z,7.3
2022-11-29T12:46:26.000Z,7.05
2022-11-29T12:48:52.000Z,7.12
2022-11-29T12:51:21.000Z,6.7
2022-11-29T12:53:48.000Z,6.8
2022-11-29T12:58:51.000Z,6.9
2022-11-29T13:01:20.000Z,6.83
2022-11-29T13:03:40.000Z,6.8
2022-11-29T13:06:12.000Z,6.72
2022-11-29T13:08:43.000Z,6.97
2022-11-29T13:13:42.000Z,6.87
2022-11-29T13:18:34.000Z,6.73
2022-11-29T13:23:36.000Z,6.7
2022-11-29T13:26:01.000Z,6.1
2022-11-29T13:28:28.000Z,6
2022-11-29T13:30:55.000Z,6.33
2022-11-29T13:35:49.000Z,7.12
2022-11-29T13:38:17.000Z,6.57
2022-11-29T13:40:44.000Z,6.33
2022-11-29T13:43:13.000Z,6.67
2022-11-29T13:45:41.000Z,6.25
2022-11-29T13:48:12.000Z,6.53
2022-11-29T13:50:37.000Z,6.33
2022-11-29T13:53:07.000Z,5.97
2022-11-29T13:55:32.000Z,6.53
2022-11-29T13:57:57.000Z,6.17
2022-11-29T14:02:55.000Z,6.1
2022-11-29T14:05:21.000Z,6.65
2022-11-29T14:07:47.000Z,6.4
2022-11-29T14:10:18.000Z,6.08
2022-11-29T14:17:46.000Z,6
2022-11-29T14:20:12.000Z,6.1
2022-11-29T14:22:37.000Z,5.17
2022-11-29T14:25:03.000Z,5.65
2022-11-29T14:27:29.000Z,4.9
2022-11-29T14:29:55.000Z,4.5
2022-11-29T14:32:30.000Z,4.62
2022-11-29T14:34:56.000Z,4.03
2022-11-29T14:37:22.000Z,4.7
2022-11-29T14:39:48.000Z,5
2022-11-29T14:42:14.000Z,5.3
2022-11-29T14:44:39.000Z,4.5
2022-11-29T14:47:07.000Z,4.33
2022-11-29T14:49:43.000Z,4.6
2022-11-29T14:52:12.000Z,5
2022-11-29T14:54:38.000Z,4.7
2022-11-29T14:57:03.000Z,5.03
2022-11-29T14:59:39.000Z,4.95
2022-11-29T15:02:04.000Z,4.95
2022-11-29T15:04:21.000Z,5.35
2022-11-29T15:06:46.000Z,5.08
2022-11-29T15:09:12.000Z,5
2022-11-29T15:11:37.000Z,5
2022-11-29T15:14:06.000Z,5.07
2022-11-29T15:16:32.000Z,5.28
2022-11-29T15:18:58.000Z,5.25
2022-11-29T15:21:25.000Z,5.8
2022-11-29T15:23:51.000Z,4.87
2022-11-29T15:26:17.000Z,5.1
2022-11-29T15:28:42.000Z,5.1
2022-11-29T15:31:08.000Z,5.2
2022-11-29T15:33:34.000Z,6.5
2022-11-29T15:35:59.000Z,6.13
2022-11-29T15:38:25.000Z,7.7
2022-11-29T15:40:51.000Z,7.4
2022-11-29T15:43:17.000Z,7.73
2022-11-29T15:45:42.000Z,7.8
2022-11-29T15:48:08.000Z,7.7
2022-11-29T15:50:34.000Z,7.12
2022-11-29T15:53:00.000Z,7.62
2022-11-29T15:55:25.000Z,7.9
2022-11-29T15:57:51.000Z,8.4
2022-11-29T16:00:25.000Z,8.83
2022-11-29T16:02:59.000Z,8.18
2022-11-29T16:05:09.000Z,7.9
2022-11-29T16:07:34.000Z,8.15
2022-11-29T16:10:00.000Z,7.97
2022-11-29T16:12:25.000Z,8.07
2022-11-29T16:14:51.000Z,7.83
2022-11-29T16:17:17.000Z,7.97
2022-11-29T16:19:43.000Z,8.17
2022-11-29T16:22:08.000Z,7.87
2022-11-29T16:24:34.000Z,7.58
2022-11-29T16:27:00.000Z,7.6
2022-11-29T16:29:26.000Z,7.33
2022-11-29T16:31:52.000Z,7.87
2022-11-29T16:34:18.000Z,7.53
2022-11-29T16:36:43.000Z,8.1
2022-11-29T16:39:09.000Z,8.37
2022-11-29T16:41:35.000Z,8.68
2022-11-29T16:44:00.000Z,8.93
2022-11-29T16:46:27.000Z,8.58
2022-11-29T16:48:53.000Z,9.25
2022-11-29T16:51:19.000Z,9.58
2022-11-29T16:53:44.000Z,9.4
2022-11-29T16:56:09.000Z,10.27
2022-11-29T16:58:35.000Z,11.7
2022-11-29T17:01:02.000Z,11.85
2022-11-29T17:03:27.000Z,12.93
2022-11-29T17:05:52.000Z,12.88
2022-11-29T17:08:19.000Z,13.85
2022-11-29T17:10:44.000Z,15.1
2022-11-29T17:13:10.000Z,14.8
2022-11-29T17:15:37.000Z,15.93
2022-11-29T17:18:01.000Z,16.15
2022-11-29T17:20:27.000Z,16.23
2022-11-29T17:22:52.000Z,16.35
2022-11-29T17:25:19.000Z,18
2022-11-29T17:27:45.000Z,18.9
2022-11-29T17:30:10.000Z,18.43
2022-11-29T17:32:36.000Z,19.05
2022-11-29T17:35:02.000Z,19.6
2022-11-29T17:37:27.000Z,18.95
2022-11-29T17:39:54.000Z,18.27
2022-11-29T17:42:19.000Z,16.75
2022-11-29T17:44:46.000Z,15.38
2022-11-29T17:47:11.000Z,13.98
2022-11-29T17:49:38.000Z,12.47
2022-11-29T17:52:02.000Z,12.53
2022-11-29T17:54:28.000Z,11.43
2022-11-29T17:56:54.000Z,10.28
2022-11-29T18:01:48.000Z,9.93
2022-11-29T18:04:12.000Z,9.73
2022-11-29T18:06:37.000Z,9.6
2022-11-29T18:09:04.000Z,9.43
2022-11-29T18:11:29.000Z,9.53
2022-11-29T18:13:55.000Z,9.5
2022-11-29T18:16:21.000Z,8.8
2022-11-29T18:18:47.000Z,8.78
2022-11-29T18:21:14.000Z,8.25
2022-11-29T18:23:39.000Z,8.25
2022-11-29T18:26:08.000Z,7.93
2022-11-29T18:28:58.000Z,8.03
2022-11-29T18:30:56.000Z,8.07
2022-11-29T18:33:22.000Z,7.33
2022-11-29T18:35:48.000Z,7.05
2022-11-29T18:38:14.000Z,7.3
2022-11-29T18:40:40.000Z,7.05
2022-11-29T18:43:05.000Z,6.6
2022-11-29T18:45:31.000Z,6.75
2022-11-29T18:47:57.000Z,6.17
2022-11-29T18:50:22.000Z,6.33
2022-11-29T18:52:49.000Z,5.7
2022-11-29T18:55:16.000Z,5.4
2022-11-29T18:57:40.000Z,5.62
2022-11-29T19:00:10.000Z,5.37
2022-11-29T19:02:31.000Z,5.7
2022-11-29T19:04:57.000Z,6.03
2022-11-29T19:07:23.000Z,5.87
2022-11-29T19:09:50.000Z,5.97
2022-11-29T19:12:15.000Z,5.78
2022-11-29T19:14:41.000Z,5.92
2022-11-29T19:17:07.000Z,5.9
2022-11-29T19:19:33.000Z,5.6
2022-11-29T19:21:58.000Z,5.5
2022-11-29T19:24:24.000Z,5.6
2022-11-29T19:26:50.000Z,5.4
2022-11-29T19:29:17.000Z,5.7
2022-11-29T19:31:42.000Z,5.67
2022-11-29T19:34:08.000Z,5.78
2022-11-29T19:36:33.000Z,5.95
2022-11-29T19:38:58.000Z,6.22
2022-11-29T19:41:26.000Z,6.7
2022-11-29T19:43:51.000Z,7.03
2022-11-29T19:46:17.000Z,6.92
2022-11-29T19:48:45.000Z,6.5
2022-11-29T19:51:08.000Z,6.23
2022-11-29T19:53:34.000Z,5.87
2022-11-29T19:56:00.000Z,6.3
2022-11-29T19:58:26.000Z,5.7
2022-11-29T20:01:08.000Z,5.5
2022-11-29T20:03:20.000Z,5.65
2022-11-29T20:05:43.000Z,5.55
2022-11-29T20:08:09.000Z,5.53
2022-11-29T20:10:35.000Z,5.9
2022-11-29T20:13:01.000Z,5.37
2022-11-29T20:15:29.000Z,5.75
2022-11-29T20:17:53.000Z,5.9
2022-11-29T20:20:19.000Z,5.83
2022-11-29T20:22:44.000Z,5.83
2022-11-29T20:25:14.000Z,5.93
2022-11-29T20:27:36.000Z,6.1
2022-11-29T20:30:01.000Z,5.8
2022-11-29T20:32:28.000Z,6.03
2022-11-29T20:34:53.000Z,6.12
2022-11-29T20:39:56.000Z,6.33
2022-11-29T20:42:17.000Z,5.9
2022-11-29T20:44:38.000Z,5.9
2022-11-29T20:47:04.000Z,6
2022-11-29T20:49:29.000Z,5.9
2022-11-29T20:51:55.000Z,5.72
2022-11-29T20:54:26.000Z,5.9
2022-11-29T20:56:52.000Z,6.5
2022-11-29T20:59:14.000Z,6.5
2022-11-29T21:04:04.000Z,5.67
2022-11-29T21:06:31.000Z,5.92
2022-11-29T21:08:57.000Z,5.22
2022-11-29T21:11:53.000Z,5.05
2022-11-29T21:14:36.000Z,5.25
2022-11-29T21:17:09.000Z,4.95
2022-11-29T21:19:34.000Z,4.95
2022-11-29T21:21:59.000Z,4.67
2022-11-29T21:24:49.000Z,4.85
2022-11-29T21:28:24.000Z,4.7
2022-11-29T21:28:28.000Z,5.35
2022-11-29T21:31:25.000Z,5.2
2022-11-29T21:34:04.000Z,5.5
2022-11-29T21:36:33.000Z,5.2
2022-11-29T21:38:58.000Z,5.37
2022-11-29T21:41:24.000Z,5.1
2022-11-29T21:45:53.000Z,4.9
2022-11-29T21:48:04.000Z,5.3
2022-11-29T21:50:29.000Z,5.03
2022-11-29T21:52:42.000Z,5.03
2022-11-29T21:56:42.000Z,4.6
2022-11-29T21:58:42.000Z,4.47
2022-11-29T22:00:40.000Z,4.8
2022-11-29T22:02:46.000Z,4.15
2022-11-29T22:04:50.000Z,4.5
2022-11-29T22:07:16.000Z,3.75
2022-11-29T22:09:42.000Z,3.8
2022-11-29T22:14:34.000Z,3.58
2022-11-29T22:16:59.000Z,3.9
2022-11-29T22:19:26.000Z,4.07
2022-11-29T22:21:53.000Z,4.12
2022-11-29T22:24:18.000Z,4.08
2022-11-29T22:26:44.000Z,3.9
2022-11-29T22:29:12.000Z,4.12
2022-11-29T22:31:37.000Z,3.97
2022-11-29T22:34:02.000Z,4.17
2022-11-29T22:36:27.000Z,4.77
2022-11-29T22:38:53.000Z,4.95
2022-11-29T22:41:19.000Z,4.75
2022-11-29T22:43:45.000Z,5.5
2022-11-29T22:46:10.000Z,7.25
2022-11-29T22:48:48.000Z,7.6
2022-11-29T22:51:31.000Z,7.2
2022-11-29T22:54:00.000Z,7.05
2022-11-29T22:56:28.000Z,7.13
2022-11-29T22:58:45.000Z,7.2
2022-11-29T23:01:31.000Z,7.6
2022-11-29T23:03:54.000Z,7.57
2022-11-29T23:06:14.000Z,7.53
2022-11-29T23:10:52.000Z,8.05
2022-11-29T23:13:11.000Z,7.75
2022-11-29T23:15:20.000Z,8.5
2022-11-29T23:17:46.000Z,8.45
2022-11-29T23:20:12.000Z,8.65
2022-11-29T23:22:43.000Z,9.33
2022-11-29T23:25:24.000Z,10.15
2022-11-29T23:27:56.000Z,11.73
2022-11-29T23:30:19.000Z,12.17
2022-11-29T23:32:46.000Z,11.33
2022-11-29T23:34:47.000Z,11.37
2022-11-29T23:37:12.000Z,10.05
2022-11-29T23:39:39.000Z,10.43
2022-11-29T23:42:04.000Z,10.15
2022-11-29T23:44:36.000Z,9.78
2022-11-29T23:47:13.000Z,9.25
2022-11-29T23:49:55.000Z,9.18
2022-11-29T23:51:59.000Z,9.67
2022-11-29T23:54:14.000Z,9.97
2022-11-29T23:56:40.000Z,9.87
2022-11-29T23:59:06.000Z,11.63
